Time,TemperatureF,DewpointF,PressureIn,WindDirection,WindDirectionDegrees,WindSpeedMPH,WindSpeedGustMPH,Humidity,HourlyPrecipIn,Conditions,Clouds,dailyrainin,SoftwareType,DateUTC
2013-02-09 00:22:00,30.0,22.0,30.10,NNE,33,5.0,14.0,72,0.00,,,0.08,,2013-02-09 05:22:00,
2013-02-09 00:32:00,30.0,22.0,30.10,NNE,30,5.0,17.0,73,0.00,,,0.08,,2013-02-09 05:32:00,
2013-02-09 00:52:00,30.0,22.0,30.10,NNE,27,6.0,24.0,73,0.00,,,0.08,,2013-02-09 05:52:00,
2013-02-09 01:01:00,30.0,23.0,30.10,NE,35,9.0,18.0,75,0.00,,,0.08,,2013-02-09 06:01:00,
2013-02-09 01:32:00,30.0,22.0,30.09,North,5,5.0,17.0,73,0.00,,,0.08,,2013-02-09 06:32:00,
2013-02-09 01:52:00,29.0,21.0,30.10,ENE,69,4.0,21.0,72,0.00,,,0.08,,2013-02-09 06:52:00,
2013-02-09 02:01:00,29.0,21.0,30.10,NNE,16,6.0,13.0,72,0.00,,,0.08,,2013-02-09 07:01:00,
2013-02-09 02:21:00,29.0,21.0,30.09,NNE,26,5.0,13.0,72,0.00,,,0.08,,2013-02-09 07:21:00,
2013-02-09 02:31:00,28.0,20.0,30.09,NNE,20,7.0,16.0,72,0.00,,,0.08,,2013-02-09 07:31:00,
2013-02-09 02:52:00,28.0,20.0,30.09,NE,55,2.0,12.0,73,0.00,,,0.08,,2013-02-09 07:52:00,
2013-02-09 03:01:00,28.0,20.0,30.09,NE,55,2.0,12.0,73,0.00,,,0.08,,2013-02-09 08:01:00,
2013-02-09 03:11:00,28.0,20.0,30.09,NE,55,2.0,12.0,73,0.00,,,0.08,,2013-02-09 08:11:00,
2013-02-09 03:21:00,28.0,20.0,30.09,NE,55,2.0,12.0,73,0.00,,,0.08,,2013-02-09 08:21:00,
2013-02-09 03:31:00,28.0,20.0,30.10,NNE,23,5.0,20.0,72,0.00,,,0.08,,2013-02-09 08:31:00,
2013-02-09 03:42:00,28.0,20.0,30.10,NNE,23,5.0,20.0,72,0.00,,,0.08,,2013-02-09 08:42:00,
2013-02-09 03:52:00,28.0,20.0,30.09,WNW,292,3.0,7.0,73,0.00,,,0.08,,2013-02-09 08:52:00,
2013-02-09 04:03:00,28.0,20.0,30.09,NNE,26,5.0,12.0,73,0.00,,,0.08,,2013-02-09 09:03:00,
2013-02-09 04:21:00,28.0,20.0,30.09,WSW,257,3.0,8.0,73,0.00,,,0.08,,2013-02-09 09:21:00,
2013-02-09 04:32:00,28.0,20.0,30.09,WSW,257,3.0,8.0,73,0.00,,,0.08,,2013-02-09 09:32:00,
2013-02-09 04:42:00,28.0,20.0,30.09,WSW,257,3.0,8.0,73,0.00,,,0.08,,2013-02-09 09:42:00,
2013-02-09 04:52:00,27.0,20.0,30.10,NNE,30,4.0,12.0,74,0.00,,,0.07,,2013-02-09 09:52:00,
2013-02-09 05:01:00,27.0,20.0,30.11,East,91,2.0,12.0,74,0.00,,,0.07,,2013-02-09 10:01:00,
2013-02-09 05:11:00,27.0,20.0,30.11,East,91,2.0,12.0,74,0.00,,,0.07,,2013-02-09 10:11:00,
2013-02-09 05:21:00,27.0,20.0,30.11,NE,44,3.0,12.0,74,0.00,,,0.07,,2013-02-09 10:21:00,
2013-02-09 05:32:00,27.0,20.0,30.11,NNE,17,3.0,12.0,75,0.00,,,0.07,,2013-02-09 10:32:00,
2013-02-09 05:42:00,27.0,20.0,30.11,NNE,17,3.0,12.0,75,0.00,,,0.07,,2013-02-09 10:42:00,
2013-02-09 05:52:00,27.0,20.0,30.13,NNW,344,4.0,12.0,75,0.00,,,0.07,,2013-02-09 10:52:00,
2013-02-09 06:01:00,27.0,20.0,30.13,North,355,5.0,14.0,75,0.00,,,0.07,,2013-02-09 11:01:00,
2013-02-09 06:11:00,27.0,20.0,30.13,North,355,5.0,14.0,75,0.00,,,0.07,,2013-02-09 11:11:00,
2013-02-09 06:22:00,27.0,20.0,30.14,North,5,4.0,14.0,75,0.00,,,0.07,,2013-02-09 11:22:00,
2013-02-09 06:32:00,26.0,19.0,30.14,WNW,284,6.0,14.0,76,0.00,,,0.06,,2013-02-09 11:32:00,
2013-02-09 06:41:00,26.0,19.0,30.14,WNW,284,6.0,14.0,76,0.00,,,0.06,,2013-02-09 11:41:00,
2013-02-09 06:52:00,26.0,19.0,30.14,WNW,284,6.0,14.0,76,0.00,,,0.06,,2013-02-09 11:52:00,
2013-02-09 07:02:00,26.0,19.0,30.14,WNW,284,6.0,14.0,76,0.00,,,0.06,,2013-02-09 12:02:00,
2013-02-09 07:11:00,26.0,19.0,30.14,WNW,284,6.0,14.0,76,0.00,,,0.06,,2013-02-09 12:11:00,
2013-02-09 07:32:00,26.0,19.0,30.21,NNE,28,3.0,14.0,75,0.00,,,0.06,,2013-02-09 12:32:00,
2013-02-09 07:42:00,26.0,19.0,30.21,NNE,28,3.0,14.0,75,0.00,,,0.06,,2013-02-09 12:42:00,
2013-02-09 07:53:00,26.0,19.0,30.21,NE,41,3.0,15.0,76,0.00,,,0.06,,2013-02-09 12:53:00,
2013-02-09 08:02:00,25.0,19.0,30.22,NNW,342,1.0,10.0,76,0.00,,,0.06,,2013-02-09 13:02:00,
2013-02-09 08:11:00,25.0,19.0,30.22,NNW,342,1.0,10.0,76,0.00,,,0.06,,2013-02-09 13:11:00,
2013-02-09 08:22:00,25.0,19.0,30.23,NNE,19,1.0,6.0,76,0.00,,,0.06,,2013-02-09 13:22:00,
2013-02-09 08:32:00,25.0,19.0,30.24,NNE,15,2.0,3.0,76,0.00,,,0.06,,2013-02-09 13:32:00,
2013-02-09 08:52:00,27.0,20.0,30.25,North,350,2.0,5.0,75,0.00,,,0.06,,2013-02-09 13:52:00,
2013-02-09 09:01:00,28.0,20.0,30.24,NW,313,1.0,6.0,72,0.00,,,0.06,,2013-02-09 14:01:00,
2013-02-09 09:21:00,29.0,20.0,30.24,NNE,25,2.0,7.0,69,0.00,,,0.06,,2013-02-09 14:21:00,
2013-02-09 09:32:00,29.0,20.0,30.24,NNE,25,2.0,7.0,69,0.00,,,0.06,,2013-02-09 14:32:00,
2013-02-09 09:52:00,31.0,21.0,30.25,NNE,26,1.0,7.0,65,0.00,,,0.06,,2013-02-09 14:52:00,
2013-02-09 10:02:00,31.0,21.0,30.25,NNE,26,1.0,7.0,65,0.00,,,0.06,,2013-02-09 15:02:00,
2013-02-09 10:21:00,33.0,21.0,30.25,North,5,2.0,9.0,62,0.00,,,0.06,,2013-02-09 15:21:00,
2013-02-09 10:32:00,34.0,21.0,30.26,West,268,1.0,6.0,59,0.00,,,0.05,,2013-02-09 15:32:00,
2013-02-09 10:42:00,34.0,21.0,30.26,West,268,1.0,6.0,59,0.00,,,0.05,,2013-02-09 15:42:00,
2013-02-09 10:52:00,34.0,20.0,30.26,NW,307,5.0,9.0,55,0.00,,,0.05,,2013-02-09 15:52:00,
2013-02-09 11:01:00,35.0,20.0,30.26,WNW,289,2.0,5.0,55,0.00,,,0.04,,2013-02-09 16:01:00,
2013-02-09 11:11:00,35.0,20.0,30.26,WNW,289,2.0,5.0,55,0.00,,,0.04,,2013-02-09 16:11:00,
2013-02-09 11:22:00,36.0,20.0,30.26,NNE,19,3.0,7.0,51,0.00,,,0.04,,2013-02-09 16:22:00,
2013-02-09 11:32:00,37.0,20.0,30.26,West,272,2.0,7.0,50,0.00,,,0.03,,2013-02-09 16:32:00,
2013-02-09 11:42:00,37.0,20.0,30.26,West,272,2.0,7.0,50,0.00,,,0.03,,2013-02-09 16:42:00,
2013-02-09 11:52:00,38.0,20.0,30.26,North,355,1.0,10.0,47,0.00,,,0.03,,2013-02-09 16:52:00,
2013-02-09 12:01:00,38.0,20.0,30.26,North,355,1.0,10.0,47,0.00,,,0.03,,2013-02-09 17:01:00,
2013-02-09 12:11:00,38.0,20.0,30.26,North,355,1.0,10.0,47,0.00,,,0.03,,2013-02-09 17:11:00,
2013-02-09 12:21:00,39.0,19.0,30.26,NNE,21,3.0,9.0,44,0.00,,,0.02,,2013-02-09 17:21:00,
2013-02-09 12:32:00,39.0,19.0,30.26,NNE,21,3.0,9.0,44,0.00,,,0.02,,2013-02-09 17:32:00,
2013-02-09 12:42:00,39.0,19.0,30.26,NNE,21,3.0,9.0,44,0.00,,,0.02,,2013-02-09 17:42:00,
2013-02-09 12:52:00,42.0,22.0,30.24,West,269,1.0,5.0,45,0.00,,,0.01,,2013-02-09 17:52:00,
2013-02-09 13:02:00,44.0,19.0,30.24,SW,229,3.0,6.0,36,0.00,,,0.01,,2013-02-09 18:02:00,
2013-02-09 13:12:00,44.0,19.0,30.24,SW,229,3.0,6.0,36,0.00,,,0.01,,2013-02-09 18:12:00,
2013-02-09 13:23:00,44.0,19.0,30.23,SW,236,2.0,7.0,37,0.00,,,0.01,,2013-02-09 18:23:00,
2013-02-09 13:32:00,45.0,17.0,30.23,SW,232,1.0,6.0,32,0.00,,,0.01,,2013-02-09 18:32:00,
2013-02-09 13:42:00,45.0,17.0,30.23,SW,232,1.0,6.0,32,0.00,,,0.01,,2013-02-09 18:42:00,
2013-02-09 13:52:00,46.0,14.0,30.22,NNE,24,1.0,7.0,27,0.00,,,0.00,,2013-02-09 18:52:00,
2013-02-09 14:01:00,47.0,18.0,30.22,SW,233,2.0,6.0,31,0.00,,,0.00,,2013-02-09 19:01:00,
2013-02-09 14:11:00,47.0,18.0,30.22,SW,233,2.0,6.0,31,0.00,,,0.00,,2013-02-09 19:11:00,
2013-02-09 14:22:00,47.0,16.0,30.21,NNE,19,1.0,9.0,28,0.00,,,0.00,,2013-02-09 19:22:00,
2013-02-09 14:32:00,49.0,16.0,30.21,West,262,3.0,5.0,26,0.00,,,0.00,,2013-02-09 19:32:00,
2013-02-09 14:42:00,49.0,16.0,30.21,West,262,3.0,5.0,26,0.00,,,0.00,,2013-02-09 19:42:00,
2013-02-09 14:52:00,49.0,16.0,30.21,North,5,1.0,5.0,27,0.00,,,0.00,,2013-02-09 19:52:00,
2013-02-09 15:01:00,50.0,18.0,30.21,NNW,335,1.0,6.0,28,0.00,,,0.00,,2013-02-09 20:01:00,
2013-02-09 15:11:00,50.0,18.0,30.21,NNW,335,1.0,6.0,28,0.00,,,0.00,,2013-02-09 20:11:00,
2013-02-09 15:21:00,51.0,19.0,30.20,NNW,329,0.0,3.0,28,0.00,,,0.00,,2013-02-09 20:21:00,
2013-02-09 15:32:00,51.0,18.0,30.20,NNE,31,1.0,3.0,27,0.00,,,0.00,,2013-02-09 20:32:00,
2013-02-09 15:42:00,51.0,18.0,30.20,NNE,31,1.0,3.0,27,0.00,,,0.00,,2013-02-09 20:42:00,
2013-02-09 15:52:00,51.0,17.0,30.19,NW,320,1.0,7.0,26,0.00,,,0.00,,2013-02-09 20:52:00,
2013-02-09 16:02:00,51.0,16.0,30.20,SE,124,2.0,6.0,25,0.00,,,0.00,,2013-02-09 21:02:00,
2013-02-09 16:12:00,51.0,16.0,30.20,SE,124,2.0,6.0,25,0.00,,,0.00,,2013-02-09 21:12:00,
2013-02-09 16:21:00,51.0,16.0,30.20,SE,124,2.0,6.0,25,0.00,,,0.00,,2013-02-09 21:21:00,
2013-02-09 16:32:00,51.0,16.0,30.20,SE,124,2.0,6.0,25,0.00,,,0.00,,2013-02-09 21:32:00,
2013-02-09 16:42:00,51.0,16.0,30.20,SE,124,2.0,6.0,25,0.00,,,0.00,,2013-02-09 21:42:00,
2013-02-09 16:52:00,51.0,16.0,30.19,NW,321,0.0,3.0,25,0.00,,,0.00,,2013-02-09 21:52:00,
2013-02-09 17:01:00,51.0,14.0,30.19,NW,323,0.0,3.0,22,0.00,,,0.00,,2013-02-09 22:01:00,
2013-02-09 17:11:00,51.0,14.0,30.19,NW,323,0.0,3.0,22,0.00,,,0.00,,2013-02-09 22:11:00,
2013-02-09 17:21:00,52.0,16.0,30.19,NW,323,0.0,3.0,24,0.00,,,0.00,,2013-02-09 22:21:00,
2013-02-09 17:32:00,52.0,16.0,30.19,NW,323,0.0,3.0,24,0.00,,,0.00,,2013-02-09 22:32:00,
2013-02-09 17:42:00,52.0,16.0,30.19,NW,323,0.0,3.0,24,0.00,,,0.00,,2013-02-09 22:42:00,
2013-02-09 17:52:00,50.0,16.0,30.19,NW,323,0.0,2.0,26,0.00,,,0.00,,2013-02-09 22:52:00,
2013-02-09 18:02:00,50.0,16.0,30.19,NW,323,0.0,2.0,26,0.00,,,0.00,,2013-02-09 23:02:00,
2013-02-09 18:11:00,50.0,16.0,30.19,NW,323,0.0,2.0,26,0.00,,,0.00,,2013-02-09 23:11:00,
2013-02-09 18:21:00,50.0,16.0,30.19,NW,323,0.0,2.0,26,0.00,,,0.00,,2013-02-09 23:21:00,
2013-02-09 18:32:00,43.0,24.0,30.23,NW,323,0.0,1.0,47,0.00,,,0.00,,2013-02-09 23:32:00,
2013-02-09 18:42:00,43.0,24.0,30.23,NW,323,0.0,1.0,47,0.00,,,0.00,,2013-02-09 23:42:00,
2013-02-09 18:52:00,40.0,23.0,30.24,NW,323,0.0,0.0,51,0.00,,,0.00,,2013-02-09 23:52:00,
2013-02-09 19:02:00,38.0,24.0,30.25,NW,323,0.0,1.0,56,0.00,,,0.00,,2013-02-10 00:02:00,
2013-02-09 19:12:00,38.0,24.0,30.25,NW,323,0.0,1.0,56,0.00,,,0.00,,2013-02-10 00:12:00,
2013-02-09 19:22:00,36.0,23.0,30.27,NW,323,0.0,2.0,59,0.00,,,0.00,,2013-02-10 00:22:00,
2013-02-09 19:32:00,35.0,23.0,30.28,NW,323,0.0,0.0,62,0.00,,,0.00,,2013-02-10 00:32:00,
2013-02-09 19:52:00,33.0,23.0,30.29,NW,323,0.0,2.0,66,0.00,,,0.00,,2013-02-10 00:52:00,
2013-02-09 20:01:00,32.0,22.0,30.30,NW,323,0.0,0.0,67,0.00,,,0.00,,2013-02-10 01:01:00,
2013-02-09 20:32:00,31.0,22.0,30.32,NW,323,0.0,1.0,70,0.00,,,0.00,,2013-02-10 01:32:00,
2013-02-09 21:22:00,29.0,21.0,30.31,NW,323,0.0,0.0,73,0.00,,,0.00,,2013-02-10 02:22:00,
2013-02-09 21:32:00,28.0,21.0,30.32,NW,323,1.0,2.0,76,0.00,,,0.00,,2013-02-10 02:32:00,
2013-02-09 21:52:00,28.0,22.0,30.31,NW,323,0.0,1.0,77,0.00,,,0.00,,2013-02-10 02:52:00,
2013-02-09 22:02:00,28.0,22.0,30.31,NW,323,0.0,1.0,77,0.00,,,0.00,,2013-02-10 03:02:00,
2013-02-09 22:11:00,28.0,22.0,30.31,NW,323,0.0,1.0,77,0.00,,,0.00,,2013-02-10 03:11:00,
2013-02-09 22:21:00,27.0,21.0,30.31,NW,323,0.0,1.0,78,0.00,,,0.00,,2013-02-10 03:21:00,
2013-02-09 22:52:00,27.0,21.0,30.30,NW,323,0.0,0.0,79,0.00,,,0.00,,2013-02-10 03:52:00,
2013-02-09 23:01:00,27.0,21.0,30.30,NW,323,0.0,0.0,79,0.00,,,0.00,,2013-02-10 04:01:00,
2013-02-09 23:11:00,27.0,21.0,30.30,NW,323,0.0,0.0,79,0.00,,,0.00,,2013-02-10 04:11:00,
2013-02-09 23:22:00,27.0,21.0,30.30,NW,323,0.0,0.0,79,0.00,,,0.00,,2013-02-10 04:22:00,
2013-02-09 23:32:00,26.0,21.0,30.29,NW,323,0.0,2.0,80,0.00,,,0.00,,2013-02-10 04:32:00,
2013-02-09 23:42:00,26.0,21.0,30.29,NW,323,0.0,2.0,80,0.00,,,0.00,,2013-02-10 04:42:00,
2013-02-09 23:52:00,26.0,21.0,30.27,NW,323,1.0,3.0,80,0.00,,,0.00,,2013-02-10 04:52:00,